Time;durP1;ratioP1;P1;durP2;ratioP2;P2;SDS_P1;SDS_P2;PMS_P1;PMS_P2;Temp;Humidity;BMP_temperature;BMP_pressure;BME280_temperature;BME280_humidity;BME280_pressure;Samples;Min_cycle;Max_cycle;Signal;HPM_P1;HPM_P2
2022/04/14 00:01:57;;;;;;;4.80;2.83;;;12.30;99.90;;;;;;5074703;28;20316;-58
2022/04/14 00:04:23;;;;;;;4.70;3.00;;;12.30;99.90;;;;;;5074361;28;20213;-58
2022/04/14 00:06:50;;;;;;;7.40;2.87;;;12.20;99.90;;;;;;5074142;28;20229;-58
2022/04/14 00:09:18;;;;;;;10.20;3.10;;;12.10;99.90;;;;;;5074531;28;20673;-58
2022/04/14 00:11:44;;;;;;;4.63;2.87;;;12.10;99.90;;;;;;5074047;28;20658;-58
2022/04/14 00:14:13;;;;;;;4.83;2.83;;;12.00;99.90;;;;;;5074221;28;20278;-57
2022/04/14 00:16:39;;;;;;;2.87;2.57;;;11.90;99.90;;;;;;5074019;28;20205;-58
2022/04/14 00:19:07;;;;;;;4.10;3.10;;;12.00;99.90;;;;;;5073788;28;20674;-58
2022/04/14 00:21:34;;;;;;;6.10;3.20;;;11.90;99.90;;;;;;5073422;28;20717;-58
2022/04/14 00:24:01;;;;;;;4.87;2.90;;;11.90;99.90;;;;;;5073609;28;20665;-58
2022/04/14 00:26:27;;;;;;;6.70;3.00;;;11.70;99.90;;;;;;5073384;28;20724;-58
2022/04/14 00:28:54;;;;;;;10.03;3.40;;;11.60;99.90;;;;;;5073708;28;20209;-58
2022/04/14 00:31:22;;;;;;;6.83;3.30;;;11.50;99.90;;;;;;5073481;28;20290;-59
2022/04/14 00:33:49;;;;;;;7.13;3.13;;;11.40;99.90;;;;;;5073458;28;20581;-58
2022/04/14 00:36:16;;;;;;;4.10;2.90;;;11.40;99.90;;;;;;5073342;28;20205;-57
2022/04/14 00:38:43;;;;;;;4.53;2.70;;;11.30;99.90;;;;;;5072425;28;20205;-58
2022/04/14 00:41:09;;;;;;;8.90;2.67;;;11.20;99.90;;;;;;5072992;28;20225;-58
2022/04/14 00:43:38;;;;;;;5.73;2.73;;;11.20;99.90;;;;;;5073345;28;20242;-58
2022/04/14 00:46:06;;;;;;;4.10;2.57;;;11.20;99.90;;;;;;5073368;28;20228;-58
2022/04/14 00:48:34;;;;;;;3.53;2.80;;;11.30;99.90;;;;;;5073232;28;20220;-57
2022/04/14 00:51:03;;;;;;;4.13;2.77;;;11.30;99.90;;;;;;5072979;28;20373;-56
2022/04/14 00:53:29;;;;;;;5.60;2.73;;;11.20;99.90;;;;;;5073125;28;20299;-58
2022/04/14 00:55:57;;;;;;;4.30;2.60;;;11.20;99.90;;;;;;5073182;28;20197;-58
2022/04/14 00:58:24;;;;;;;3.13;2.60;;;11.20;99.90;;;;;;5072984;28;20691;-58
2022/04/14 01:00:50;;;;;;;5.83;2.57;;;11.20;99.90;;;;;;5073021;28;20220;-58
2022/04/14 01:03:17;;;;;;;5.17;2.87;;;11.20;99.90;;;;;;5072567;28;20204;-57
2022/04/14 01:05:46;;;;;;;5.23;2.90;;;11.10;99.90;;;;;;5072755;28;20311;-58
2022/04/14 01:08:17;;;;;;;5.77;2.50;;;11.10;99.90;;;;;;5072770;28;20684;-57
2022/04/14 01:10:48;;;;;;;3.87;2.80;;;11.10;99.90;;;;;;5073174;28;20204;-58
2022/04/14 01:13:15;;;;;;;4.23;2.77;;;11.10;99.90;;;;;;5072652;28;20290;-58
2022/04/14 01:15:42;;;;;;;4.47;2.77;;;11.20;99.90;;;;;;5072777;28;20201;-58
2022/04/14 01:18:09;;;;;;;4.70;2.77;;;11.10;99.90;;;;;;5072653;28;20204;-59
2022/04/14 01:20:36;;;;;;;4.83;2.80;;;11.10;99.90;;;;;;5072590;28;20250;-57
2022/04/14 01:23:05;;;;;;;6.03;3.00;;;11.10;99.90;;;;;;5072272;28;20641;-58
2022/04/14 01:25:34;;;;;;;4.57;2.80;;;11.00;99.90;;;;;;5072442;28;20204;-62
2022/04/14 01:28:01;;;;;;;4.50;2.80;;;11.00;99.90;;;;;;5072395;28;20666;-57
2022/04/14 01:30:28;;;;;;;4.10;2.37;;;10.90;99.90;;;;;;5072419;28;20212;-58
2022/04/14 01:32:55;;;;;;;5.87;2.60;;;10.90;99.90;;;;;;5072548;28;20220;-58
2022/04/14 01:35:23;;;;;;;6.33;2.70;;;10.80;99.90;;;;;;5072741;28;20750;-58
2022/04/14 01:37:50;;;;;;;5.93;2.97;;;10.70;99.90;;;;;;5072494;28;20287;-57
2022/04/14 01:40:17;;;;;;;4.23;2.90;;;10.70;99.90;;;;;;5072404;28;20201;-58
2022/04/14 01:42:45;;;;;;;5.30;3.10;;;10.80;99.90;;;;;;5080057;22;20639;-57
2022/04/14 01:45:12;;;;;;;3.40;2.70;;;10.70;99.90;;;;;;5052322;28;20209;-57
2022/04/14 01:47:40;;;;;;;4.20;2.73;;;10.80;99.90;;;;;;5052213;28;20602;-57
2022/04/14 01:50:08;;;;;;;4.27;2.80;;;10.80;99.90;;;;;;5052341;28;20209;-57
2022/04/14 01:52:35;;;;;;;2.87;2.60;;;10.70;99.90;;;;;;5052348;28;20251;-57
2022/04/14 01:55:02;;;;;;;5.60;2.70;;;10.60;99.90;;;;;;5052332;28;20205;-57
2022/04/14 01:57:29;;;;;;;3.77;2.67;;;10.50;99.90;;;;;;5052210;28;20197;-57
2022/04/14 01:59:58;;;;;;;4.60;2.60;;;10.50;99.90;;;;;;5052202;28;20673;-57
2022/04/14 02:02:24;;;;;;;4.73;2.80;;;10.40;99.90;;;;;;5051632;28;20253;-57
2022/04/14 02:04:51;;;;;;;4.47;2.60;;;10.30;99.90;;;;;;5052375;28;20213;-57
2022/04/14 02:07:18;;;;;;;7.53;2.70;;;10.30;99.90;;;;;;5052091;28;20320;-57
2022/04/14 02:09:45;;;;;;;3.37;2.50;;;10.20;99.90;;;;;;5052171;28;20206;-57
2022/04/14 02:12:12;;;;;;;5.47;2.80;;;10.10;99.90;;;;;;5051746;28;20264;-56
2022/04/14 02:14:40;;;;;;;5.73;2.57;;;10.00;99.90;;;;;;5052008;28;20211;-57
2022/04/14 02:17:08;;;;;;;5.83;2.97;;;9.90;99.90;;;;;;5051780;28;20832;-57
2022/04/14 02:19:34;;;;;;;8.63;2.87;;;10.00;99.90;;;;;;5052105;28;20636;-57
2022/04/14 02:22:01;;;;;;;6.97;2.90;;;10.00;99.90;;;;;;5051729;28;20222;-57
2022/04/14 02:24:28;;;;;;;5.73;2.57;;;10.10;99.90;;;;;;5051921;28;20205;-57
2022/04/14 02:26:55;;;;;;;4.47;2.60;;;10.20;99.90;;;;;;5051824;28;20248;-57
2022/04/14 02:29:22;;;;;;;5.50;2.97;;;10.10;99.90;;;;;;5051851;28;20263;-57
2022/04/14 02:31:49;;;;;;;5.87;2.80;;;10.20;99.90;;;;;;5051469;28;20505;-57
2022/04/14 02:34:17;;;;;;;4.87;2.93;;;10.20;99.90;;;;;;5051920;28;20210;-57
2022/04/14 02:36:43;;;;;;;4.67;2.80;;;10.10;99.90;;;;;;5051720;28;20669;-57
2022/04/14 02:39:10;;;;;;;4.63;3.00;;;10.10;99.90;;;;;;5051714;28;20614;-57
2022/04/14 02:41:37;;;;;;;4.03;3.00;;;10.10;99.90;;;;;;5051362;28;20283;-57
2022/04/14 02:44:04;;;;;;;5.07;2.73;;;10.10;99.90;;;;;;5051695;28;20669;-57
2022/04/14 02:46:31;;;;;;;4.00;2.57;;;10.00;99.90;;;;;;5051785;28;20228;-57
2022/04/14 02:48:57;;;;;;;3.33;2.67;;;10.10;99.90;;;;;;5051964;28;20606;-58
2022/04/14 02:51:25;;;;;;;4.13;2.60;;;10.10;99.90;;;;;;5051621;28;20581;-57
2022/04/14 02:53:53;;;;;;;4.77;2.93;;;10.10;99.90;;;;;;5051613;28;20242;-57
2022/04/14 02:56:19;;;;;;;4.47;2.90;;;10.10;99.90;;;;;;5051505;28;20603;-58
2022/04/14 02:58:47;;;;;;;4.87;3.00;;;10.00;99.90;;;;;;5051508;28;20263;-57
2022/04/14 03:01:13;;;;;;;5.90;3.00;;;10.00;99.90;;;;;;5051396;28;20202;-57
2022/04/14 03:03:40;;;;;;;6.93;2.70;;;10.00;99.90;;;;;;5055524;28;20213;-57
2022/04/14 03:06:07;;;;;;;4.20;3.07;;;10.00;99.90;;;;;;5055329;28;20296;-57
2022/04/14 03:08:35;;;;;;;5.50;3.40;;;9.90;99.90;;;;;;5055360;28;20300;-57
2022/04/14 03:11:02;;;;;;;4.43;3.30;;;9.90;99.90;;;;;;5054994;28;20618;-57
2022/04/14 03:13:29;;;;;;;4.43;2.80;;;9.90;99.90;;;;;;5054819;28;20584;-57
2022/04/14 03:15:55;;;;;;;6.27;3.13;;;9.70;99.90;;;;;;5055366;28;20283;-57
2022/04/14 03:18:22;;;;;;;6.10;2.77;;;9.70;99.90;;;;;;5055136;28;20213;-57
2022/04/14 03:20:49;;;;;;;5.17;2.90;;;9.60;99.90;;;;;;5055305;28;20210;-57
2022/04/14 03:23:16;;;;;;;3.90;2.90;;;9.60;99.90;;;;;;5054811;28;20263;-57
2022/04/14 03:25:44;;;;;;;5.67;3.30;;;9.50;99.90;;;;;;5054800;28;20792;-58
2022/04/14 03:28:11;;;;;;;4.33;2.90;;;9.50;99.90;;;;;;5055108;28;20225;-57
2022/04/14 03:30:38;;;;;;;4.70;2.70;;;9.40;99.90;;;;;;5054934;28;20206;-57
2022/04/14 03:33:04;;;;;;;3.33;2.73;;;9.40;99.90;;;;;;5054764;28;20230;-57
2022/04/14 03:35:31;;;;;;;7.07;3.20;;;9.30;99.90;;;;;;5054992;28;20209;-57
2022/04/14 03:37:58;;;;;;;4.60;3.20;;;9.30;99.90;;;;;;5054830;28;20206;-57
2022/04/14 03:40:25;;;;;;;5.83;3.27;;;9.40;99.90;;;;;;5054585;28;20209;-57
2022/04/14 03:42:53;;;;;;;5.90;3.70;;;9.40;99.90;;;;;;5054369;28;20233;-58
2022/04/14 03:45:19;;;;;;;7.43;4.23;;;9.40;99.90;;;;;;5054655;28;20210;-57
2022/04/14 03:47:46;;;;;;;5.07;3.73;;;9.40;99.90;;;;;;5054631;28;20233;-57
2022/04/14 03:50:13;;;;;;;5.77;3.73;;;9.40;99.90;;;;;;5054747;28;20218;-57
2022/04/14 03:52:40;;;;;;;4.47;3.60;;;9.40;99.90;;;;;;5054247;28;20304;-58
2022/04/14 03:55:07;;;;;;;4.73;3.00;;;9.40;99.90;;;;;;5054425;28;20209;-58
2022/04/14 03:57:34;;;;;;;4.17;2.93;;;9.40;99.90;;;;;;5054742;28;20263;-57
2022/04/14 04:00:02;;;;;;;4.33;3.50;;;9.40;99.90;;;;;;5054514;28;20206;-57
2022/04/14 04:02:29;;;;;;;5.47;3.20;;;9.30;99.90;;;;;;5054107;28;20225;-57
2022/04/14 04:04:55;;;;;;;7.47;3.20;;;9.40;99.90;;;;;;5054542;28;20217;-57
2022/04/14 04:07:22;;;;;;;4.13;3.50;;;9.30;99.90;;;;;;5054079;28;20221;-58
2022/04/14 04:09:49;;;;;;;4.90;3.30;;;9.30;99.90;;;;;;5054125;28;20665;-57
2022/04/14 04:12:17;;;;;;;5.27;3.90;;;9.30;99.90;;;;;;5053679;28;20653;-57
2022/04/14 04:14:44;;;;;;;3.50;3.07;;;9.30;99.90;;;;;;5054238;28;20233;-58
2022/04/14 04:17:12;;;;;;;5.97;3.70;;;9.10;99.90;;;;;;5054202;28;20206;-57
2022/04/14 04:19:39;;;;;;;4.73;3.17;;;9.10;99.90;;;;;;5054094;28;20213;-57
2022/04/14 04:22:06;;;;;;;4.43;3.70;;;9.10;99.90;;;;;;5053632;28;20233;-57
2022/04/14 04:24:33;;;;;;;4.63;3.33;;;9.20;99.90;;;;;;5054038;28;20304;-58
2022/04/14 04:26:59;;;;;;;4.30;3.37;;;9.30;99.90;;;;;;5053700;28;20221;-57
2022/04/14 04:29:26;;;;;;;4.60;3.80;;;9.20;99.90;;;;;;5053722;28;20209;-57
2022/04/14 04:31:53;;;;;;;6.40;3.73;;;9.20;99.90;;;;;;5053444;28;20233;-57
2022/04/14 04:34:21;;;;;;;5.73;3.77;;;9.10;99.90;;;;;;5053718;28;20205;-57
2022/04/14 04:36:48;;;;;;;8.10;3.90;;;9.10;99.90;;;;;;5053939;28;20204;-57
2022/04/14 04:39:16;;;;;;;5.70;3.60;;;9.10;99.90;;;;;;5053643;28;20210;-57
2022/04/14 04:41:42;;;;;;;7.87;3.60;;;9.10;99.90;;;;;;5053492;28;20782;-56
2022/04/14 04:44:09;;;;;;;5.17;3.60;;;9.10;99.90;;;;;;5054073;28;20613;-56
2022/04/14 04:46:36;;;;;;;5.60;3.77;;;9.20;99.90;;;;;;5053377;28;20205;-56
2022/04/14 04:49:03;;;;;;;9.57;4.73;;;9.20;99.90;;;;;;5053415;28;20214;-56
2022/04/14 04:51:31;;;;;;;7.43;3.77;;;9.30;99.90;;;;;;5053517;28;20229;-56
2022/04/14 04:53:58;;;;;;;7.03;4.23;;;9.30;99.90;;;;;;5053649;28;20255;-56
2022/04/14 04:56:25;;;;;;;8.27;3.97;;;9.30;99.90;;;;;;5053429;28;20558;-56
2022/04/14 04:58:52;;;;;;;7.60;3.67;;;9.30;99.90;;;;;;5053351;28;20198;-56
2022/04/14 05:01:19;;;;;;;10.63;4.00;;;9.40;99.90;;;;;;5053018;28;20206;-56
2022/04/14 05:03:46;;;;;;;4.50;3.40;;;9.50;99.90;;;;;;5052765;28;20206;-56
2022/04/14 05:06:12;;;;;;;5.83;3.53;;;9.60;99.90;;;;;;5053055;28;20620;-56
2022/04/14 05:08:40;;;;;;;6.53;3.43;;;9.70;99.90;;;;;;5053182;28;20221;-56
2022/04/14 05:11:07;;;;;;;8.63;3.30;;;9.80;99.90;;;;;;5053069;28;20209;-56
2022/04/14 05:13:34;;;;;;;6.60;3.43;;;9.90;99.90;;;;;;5052724;28;20202;-56
2022/04/14 05:16:02;;;;;;;5.50;3.70;;;10.00;99.90;;;;;;5052842;28;20205;-57
2022/04/14 05:18:28;;;;;;;6.67;4.17;;;10.10;99.90;;;;;;5052846;28;20723;-56
2022/04/14 05:20:55;;;;;;;6.77;3.77;;;10.20;99.90;;;;;;5053092;28;20205;-57
2022/04/14 05:23:22;;;;;;;6.97;3.67;;;10.30;99.90;;;;;;5052720;28;20226;-56
2022/04/14 05:25:50;;;;;;;6.00;4.00;;;10.40;99.90;;;;;;5051892;28;20232;-57
2022/04/14 05:28:17;;;;;;;6.10;4.00;;;10.50;99.90;;;;;;5052923;28;20224;-57
2022/04/14 05:30:43;;;;;;;6.53;4.10;;;10.80;99.90;;;;;;5052759;28;20213;-57
2022/04/14 05:33:11;;;;;;;6.17;3.67;;;10.90;99.90;;;;;;5052449;28;20229;-57
2022/04/14 05:35:38;;;;;;;13.80;4.73;;;11.10;99.90;;;;;;5052625;28;20209;-57
2022/04/14 05:38:06;;;;;;;8.77;3.77;;;11.30;99.90;;;;;;5052604;28;20212;-57
2022/04/14 05:40:34;;;;;;;13.00;4.33;;;11.50;99.90;;;;;;5052610;28;20799;-57
2022/04/14 05:43:02;;;;;;;9.43;4.07;;;11.80;99.90;;;;;;5052030;28;20602;-57
2022/04/14 05:45:30;;;;;;;9.23;3.83;;;12.50;99.90;;;;;;5052306;28;20266;-57
2022/04/14 05:47:56;;;;;;;8.43;3.77;;;13.30;99.90;;;;;;5052370;28;20696;-57
2022/04/14 05:50:23;;;;;;;10.53;4.00;;;14.20;99.90;;;;;;5052824;28;20213;-57
2022/04/14 05:52:49;;;;;;;16.10;6.57;;;14.90;99.90;;;;;;5052161;28;20229;-57
2022/04/14 05:55:16;;;;;;;18.83;9.70;;;15.70;99.90;;;;;;5052518;28;20256;-57
2022/04/14 05:57:43;;;;;;;20.57;11.10;;;16.50;99.90;;;;;;5052191;28;20232;-56
2022/04/14 06:00:13;;;;;;;23.23;12.13;;;17.20;99.90;;;;;;5052164;28;20214;-57
2022/04/14 06:02:40;;;;;;;22.67;14.17;;;17.90;99.90;;;;;;5052132;28;20225;-57
2022/04/14 06:05:08;;;;;;;25.50;14.10;;;18.60;99.90;;;;;;5052130;28;20613;-57
2022/04/14 06:07:35;;;;;;;26.85;16.70;;;19.20;99.90;;;;;;5052127;28;20272;-57
2022/04/14 06:10:01;;;;;;;19.23;12.77;;;19.90;98.50;;;;;;5052616;28;20202;-58
2022/04/14 06:12:28;;;;;;;21.05;11.73;;;20.50;98.20;;;;;;5051999;28;20225;-58
2022/04/14 06:14:55;;;;;;;20.67;12.50;;;21.00;96.50;;;;;;5052706;28;20216;-59
2022/04/14 06:17:23;;;;;;;23.67;12.63;;;21.50;95.00;;;;;;5052109;28;20206;-58
2022/04/14 06:19:50;;;;;;;20.88;11.63;;;22.20;93.80;;;;;;5052531;28;20206;-58
2022/04/14 06:22:16;;;;;;;21.15;11.27;;;22.90;92.30;;;;;;5052198;28;20283;-57
2022/04/14 06:24:43;;;;;;;19.33;11.32;;;23.30;91.30;;;;;;5052114;28;20201;-58
2022/04/14 06:27:10;;;;;;;15.77;10.50;;;23.60;90.00;;;;;;5051837;28;20589;-58
2022/04/14 06:29:36;;;;;;;12.93;9.18;;;23.80;89.40;;;;;;5052157;28;20628;-58
2022/04/14 06:32:03;;;;;;;16.23;9.95;;;24.00;89.30;;;;;;5051392;28;20635;-58
2022/04/14 06:34:31;;;;;;;19.33;9.27;;;24.50;88.40;;;;;;5052005;28;20283;-59
2022/04/14 06:36:58;;;;;;;11.52;7.38;;;25.10;86.60;;;;;;5053042;28;20206;-59
2022/04/14 06:39:25;;;;;;;13.90;8.23;;;25.60;84.90;;;;;;5055721;28;20201;-59
2022/04/14 06:41:51;;;;;;;12.23;8.18;;;25.60;83.90;;;;;;5055421;28;20240;-59
2022/04/14 06:44:18;;;;;;;13.90;8.77;;;25.30;85.60;;;;;;5055966;28;20212;-59
2022/04/14 06:46:45;;;;;;;14.73;9.43;;;25.70;86.10;;;;;;5055695;28;20591;-59
2022/04/14 06:49:11;;;;;;;14.77;9.50;;;26.00;84.50;;;;;;5055310;28;20638;-59
2022/04/14 06:51:39;;;;;;;15.90;10.95;;;25.70;86.50;;;;;;5055122;28;20717;-59
2022/04/14 06:54:06;;;;;;;16.85;10.35;;;26.40;85.60;;;;;;5055437;28;20216;-57
2022/04/14 06:56:33;;;;;;;12.52;10.27;;;27.30;82.50;;;;;;5055691;28;20210;-59
2022/04/14 06:58:59;;;;;;;19.73;13.55;;;28.20;79.90;;;;;;5055753;28;20247;-59
2022/04/14 07:01:26;;;;;;;16.73;11.13;;;28.40;78.20;;;;;;5055529;28;20232;-59
2022/04/14 07:03:53;;;;;;;17.30;11.90;;;28.50;77.40;;;;;;5055348;28;20201;-59
2022/04/14 07:06:19;;;;;;;15.75;11.23;;;28.90;76.60;;;;;;5055434;28;20743;-57
2022/04/14 07:08:47;;;;;;;18.65;12.18;;;29.30;74.80;;;;;;5055004;28;20228;-57
2022/04/14 07:11:14;;;;;;;16.17;11.60;;;29.70;73.30;;;;;;5055249;28;20212;-59
2022/04/14 07:13:41;;;;;;;15.95;11.98;;;29.40;73.70;;;;;;5054986;28;20607;-59
2022/04/14 07:16:07;;;;;;;13.20;11.40;;;29.70;73.50;;;;;;5055095;28;20620;-59
2022/04/14 07:18:34;;;;;;;15.63;11.52;;;30.20;70.80;;;;;;5055254;28;20673;-59
2022/04/14 07:21:01;;;;;;;19.13;11.90;;;30.20;71.30;;;;;;5055096;28;20296;-59
2022/04/14 07:23:28;;;;;;;14.57;10.85;;;30.70;70.00;;;;;;5054701;28;20201;-59
2022/04/14 07:25:56;;;;;;;15.43;11.52;;;31.10;67.90;;;;;;5055087;28;20296;-59
2022/04/14 07:28:23;;;;;;;16.48;12.35;;;29.80;70.20;;;;;;5054987;28;20252;-59
2022/04/14 07:30:50;;;;;;;20.05;12.45;;;29.10;72.70;;;;;;5054817;28;20263;-59
2022/04/14 07:33:17;;;;;;;16.50;11.38;;;29.70;71.30;;;;;;5054726;28;20271;-59
2022/04/14 07:35:45;;;;;;;13.10;10.27;;;30.80;69.10;;;;;;5054755;28;20202;-59
2022/04/14 07:38:13;;;;;;;15.77;11.35;;;31.60;66.90;;;;;;5054913;28;20232;-59
2022/04/14 07:40:40;;;;;;;13.95;11.07;;;31.30;66.30;;;;;;5055039;28;20213;-59
2022/04/14 07:43:08;;;;;;;18.27;11.70;;;31.20;67.00;;;;;;5077283;22;20233;-56
2022/04/14 07:45:34;;;;;;;14.13;10.80;;;31.70;65.40;;;;;;5054645;28;20251;-56
2022/04/14 07:48:02;;;;;;;16.33;11.40;;;32.10;64.10;;;;;;5053779;28;20267;-57
2022/04/14 07:50:29;;;;;;;17.05;10.88;;;32.20;63.40;;;;;;5054524;28;20209;-57
2022/04/14 07:52:57;;;;;;;14.32;10.15;;;32.60;62.40;;;;;;5054233;28;20291;-55
2022/04/14 07:55:25;;;;;;;15.30;9.98;;;32.80;61.10;;;;;;5054542;28;20206;-56
2022/04/14 07:57:54;;;;;;;15.52;9.73;;;33.00;60.10;;;;;;5054406;28;20247;-56
2022/04/14 08:00:24;;;;;;;14.40;10.27;;;33.20;60.00;;;;;;5054374;28;20665;-55
2022/04/14 08:02:53;;;;;;;12.68;10.52;;;32.30;61.10;;;;;;5054112;28;20228;-56
2022/04/14 08:05:20;;;;;;;17.95;11.40;;;31.30;62.90;;;;;;5054621;28;20206;-56
2022/04/14 08:07:47;;;;;;;12.98;10.45;;;29.90;66.10;;;;;;5054383;28;20263;-58
2022/04/14 08:10:15;;;;;;;14.30;10.65;;;28.70;69.20;;;;;;5054297;28;20213;-58
2022/04/14 08:12:41;;;;;;;16.42;11.07;;;29.00;69.40;;;;;;5054218;28;20237;-59
2022/04/14 08:15:10;;;;;;;18.17;14.45;;;29.50;68.30;;;;;;5054620;28;20236;-57
2022/04/14 08:17:39;;;;;;;17.20;11.95;;;29.30;68.20;;;;;;5053993;28;20622;-58
2022/04/14 08:20:07;;;;;;;17.05;11.85;;;28.70;69.70;;;;;;5054154;28;20575;-58
2022/04/14 08:22:47;;;;;;;15.63;12.47;;;27.70;72.10;;;;;;5048347;28;20448;-53
2022/04/14 08:25:15;;;;;;;16.08;11.32;;;26.50;75.20;;;;;;5053950;28;20209;-54
2022/04/14 08:27:42;;;;;;;13.98;11.25;;;25.80;77.40;;;;;;5053748;28;20241;-58
2022/04/14 08:30:10;;;;;;;16.77;11.55;;;25.20;79.30;;;;;;5053794;28;20214;-59
2022/04/14 08:32:37;;;;;;;18.20;13.15;;;24.60;81.40;;;;;;5053120;28;20225;-57
2022/04/14 08:35:06;;;;;;;15.70;12.10;;;23.00;86.90;;;;;;5053431;28;20630;-56
2022/04/14 08:37:33;;;;;;;19.20;13.38;;;21.50;91.00;;;;;;5053631;28;20263;-56
2022/04/14 08:40:01;;;;;;;13.93;12.20;;;20.90;92.70;;;;;;5053430;28;20198;-55
2022/04/14 08:42:37;;;;;;;15.00;10.57;;;20.70;93.60;;;;;;5052909;28;20240;-55
2022/04/14 08:45:08;;;;;;;13.85;10.65;;;20.90;93.80;;;;;;5053612;28;20593;-55
2022/04/14 08:47:37;;;;;;;14.55;11.02;;;21.30;93.70;;;;;;5053366;28;20279;-57
2022/04/14 08:50:06;;;;;;;14.77;11.90;;;21.40;93.80;;;;;;5053440;28;20316;-58
2022/04/14 08:52:34;;;;;;;18.25;12.95;;;21.70;93.50;;;;;;5052999;28;20264;-54
2022/04/14 08:55:04;;;;;;;28.73;22.63;;;21.80;93.40;;;;;;5053299;28;20296;-54
2022/04/14 08:57:32;;;;;;;23.05;13.48;;;21.90;93.40;;;;;;5053578;28;20209;-57
2022/04/14 08:59:59;;;;;;;17.08;11.73;;;22.10;93.30;;;;;;5051978;28;20293;-53
2022/04/14 09:02:27;;;;;;;17.30;11.18;;;22.00;93.20;;;;;;5053037;28;20233;-53
2022/04/14 09:04:55;;;;;;;18.77;11.60;;;21.50;94.00;;;;;;5053274;28;20216;-53
2022/04/14 09:07:23;;;;;;;15.73;9.98;;;21.00;94.70;;;;;;5053000;28;20205;-53
2022/04/14 09:09:50;;;;;;;17.48;11.02;;;20.80;95.30;;;;;;5053177;28;20704;-54
2022/04/14 09:12:16;;;;;;;14.63;10.80;;;20.50;95.60;;;;;;5052580;28;20625;-55
2022/04/14 09:14:43;;;;;;;17.30;11.02;;;20.10;96.10;;;;;;5053123;28;20259;-53
2022/04/14 09:17:10;;;;;;;19.02;11.43;;;20.10;96.50;;;;;;5053043;28;20213;-53
2022/04/14 09:19:38;;;;;;;11.77;8.48;;;20.20;96.70;;;;;;5052715;28;20206;-60
2022/04/14 09:22:08;;;;;;;15.55;10.90;;;20.50;96.40;;;;;;5052294;28;20225;-53
2022/04/14 09:24:44;;;;;;;14.52;10.75;;;20.80;96.30;;;;;;5052606;28;20210;-54
2022/04/14 09:27:27;;;;;;;18.98;11.07;;;20.90;96.10;;;;;;5052684;28;20216;-55
2022/04/14 09:29:57;;;;;;;16.90;11.40;;;20.70;96.40;;;;;;5051909;28;20447;-55
2022/04/14 09:32:42;;;;;;;14.57;10.95;;;20.50;96.30;;;;;;5051984;28;20628;-56
2022/04/14 09:35:17;;;;;;;14.73;10.57;;;20.30;96.80;;;;;;5052762;28;20237;-53
2022/04/14 09:37:44;;;;;;;13.52;9.73;;;20.40;97.10;;;;;;5052067;28;20258;-56
2022/04/14 09:40:13;;;;;;;15.75;10.00;;;20.50;96.40;;;;;;5052595;28;20251;-54
2022/04/14 09:42:41;;;;;;;13.38;10.00;;;20.40;96.90;;;;;;5051590;28;20744;-56
2022/04/14 09:45:19;;;;;;;12.57;10.23;;;20.30;97.10;;;;;;5052052;28;20301;-56
2022/04/14 09:47:46;;;;;;;16.75;10.45;;;20.40;97.20;;;;;;5051841;28;20594;-59
2022/04/14 09:50:27;;;;;;;13.73;10.70;;;20.50;97.40;;;;;;5052265;28;20221;-60
2022/04/14 09:53:02;;;;;;;15.80;10.23;;;20.60;97.10;;;;;;5051779;28;20225;-60
2022/04/14 09:55:30;;;;;;;16.23;10.13;;;20.70;97.40;;;;;;5051350;28;20206;-60
2022/04/14 09:58:07;;;;;;;15.77;10.48;;;20.80;97.40;;;;;;5047199;28;20202;-59
2022/04/14 10:00:37;;;;;;;17.58;9.55;;;20.90;97.10;;;;;;5030435;28;20243;-59
2022/04/14 10:03:09;;;;;;;13.60;9.63;;;20.90;96.70;;;;;;5031917;28;20309;-58
2022/04/14 10:05:36;;;;;;;16.17;9.63;;;20.90;96.40;;;;;;5031486;28;20260;-60
2022/04/14 10:08:07;;;;;;;12.75;9.82;;;21.20;96.20;;;;;;5031754;28;20206;-57
2022/04/14 10:10:36;;;;;;;12.52;9.82;;;21.50;95.80;;;;;;5031692;28;20692;-57
2022/04/14 10:13:05;;;;;;;21.67;10.82;;;21.70;95.50;;;;;;5031285;28;20586;-58
2022/04/14 10:15:33;;;;;;;18.45;11.70;;;21.90;95.10;;;;;;5031804;28;20206;-57
2022/04/14 10:18:04;;;;;;;12.48;9.50;;;22.10;95.10;;;;;;5032072;28;20214;-57
2022/04/14 10:20:31;;;;;;;13.13;10.13;;;22.20;94.80;;;;;;5031536;28;20232;-57
2022/04/14 10:23:00;;;;;;;11.23;8.93;;;22.30;94.40;;;;;;5031091;28;20738;-57
2022/04/14 10:25:27;;;;;;;16.15;9.80;;;22.40;94.10;;;;;;5031416;28;20736;-57
2022/04/14 10:27:57;;;;;;;16.30;9.48;;;22.50;93.90;;;;;;5031621;28;20211;-57
2022/04/14 10:30:24;;;;;;;15.23;10.38;;;22.70;93.50;;;;;;5031482;28;20234;-58
2022/04/14 10:32:53;;;;;;;15.18;9.43;;;22.70;93.30;;;;;;5030920;28;20230;-58
2022/04/14 10:35:20;;;;;;;19.10;9.85;;;22.60;93.40;;;;;;5031664;28;20210;-57
2022/04/14 10:37:51;;;;;;;11.20;8.93;;;22.60;93.30;;;;;;5030953;28;20210;-57
2022/04/14 10:40:18;;;;;;;14.82;9.07;;;22.70;93.10;;;;;;5031478;28;20198;-58
2022/04/14 10:42:49;;;;;;;13.40;9.02;;;22.80;92.90;;;;;;5030983;28;20714;-57
2022/04/14 10:45:19;;;;;;;13.57;9.07;;;22.90;92.40;;;;;;5031172;28;20214;-59
2022/04/14 10:48:00;;;;;;;14.43;8.77;;;23.00;92.20;;;;;;5031452;28;20209;-59
2022/04/14 10:50:29;;;;;;;12.32;8.98;;;23.00;91.70;;;;;;5030941;28;20226;-58
2022/04/14 10:53:23;;;;;;;13.55;9.07;;;22.90;92.20;;;;;;5031080;28;20222;-59
2022/04/14 10:55:51;;;;;;;18.42;9.65;;;22.60;92.30;;;;;;5027918;28;20206;-56
2022/04/14 10:58:55;;;;;;;12.60;8.13;;;22.60;92.50;;;;;;5031520;28;20302;-58
2022/04/14 11:02:08;;;;;;;13.50;8.68;;;22.70;92.00;;;;;;5032417;28;20241;-67
2022/04/14 11:04:52;;;;;;;12.90;8.48;;;22.80;91.30;;;;;;5033219;28;20213;-58
2022/04/14 11:07:21;;;;;;;13.10;8.63;;;22.80;91.70;;;;;;5031599;28;20562;-58
2022/04/14 11:09:53;;;;;;;12.55;9.30;;;22.80;91.70;;;;;;5031235;28;20258;-59
2022/04/14 11:12:22;;;;;;;14.18;8.80;;;23.00;91.60;;;;;;5031285;28;20226;-58
2022/04/14 11:14:51;;;;;;;12.20;8.13;;;23.00;91.80;;;;;;5031179;28;20264;-59
2022/04/14 11:17:52;;;;;;;11.60;8.70;;;23.00;91.00;;;;;;5031251;28;20210;-60
2022/04/14 11:20:22;;;;;;;15.05;8.80;;;23.00;91.60;;;;;;5031044;28;20209;-59
2022/04/14 11:23:08;;;;;;;11.50;8.73;;;23.20;91.30;;;;;;5031458;28;20230;-60
2022/04/14 11:25:46;;;;;;;15.57;8.77;;;23.20;90.60;;;;;;5034754;28;20214;-60
2022/04/14 11:28:26;;;;;;;14.40;7.50;;;23.10;90.90;;;;;;5034941;28;20202;-62
2022/04/14 11:30:54;;;;;;;15.50;8.07;;;23.20;90.80;;;;;;5034608;28;20317;-64
2022/04/14 11:33:34;;;;;;;17.83;8.35;;;23.10;90.40;;;;;;5034213;28;20238;-65
2022/04/14 11:36:10;;;;;;;14.70;7.80;;;23.10;90.60;;;;;;5034936;28;20242;-59
2022/04/14 11:38:57;;;;;;;10.10;7.70;;;23.20;89.70;;;;;;5034486;28;20665;-56
2022/04/14 11:41:39;;;;;;;13.05;7.13;;;23.20;89.10;;;;;;5034372;28;20265;-57
2022/04/14 11:44:08;;;;;;;11.50;6.88;;;23.30;89.30;;;;;;5034461;28;20260;-57
2022/04/14 11:46:37;;;;;;;16.85;8.68;;;23.50;90.00;;;;;;5034501;28;20206;-57
2022/04/14 11:49:04;;;;;;;11.05;8.13;;;23.70;89.10;;;;;;5034425;28;20222;-58
2022/04/14 11:51:32;;;;;;;12.10;8.50;;;23.70;88.40;;;;;;5034065;28;20206;-57
2022/04/14 11:53:59;;;;;;;13.88;8.45;;;23.50;89.70;;;;;;5033749;28;20214;-59
2022/04/14 11:56:26;;;;;;;15.15;8.70;;;23.20;90.20;;;;;;5034300;28;20253;-60
2022/04/14 11:58:53;;;;;;;12.60;8.05;;;23.20;90.50;;;;;;5034465;28;20210;-60
2022/04/14 12:01:21;;;;;;;13.90;8.38;;;23.30;90.00;;;;;;5034209;28;20203;-61
2022/04/14 12:03:47;;;;;;;13.48;8.00;;;23.50;90.40;;;;;;5033444;28;20210;-61
2022/04/14 12:06:16;;;;;;;13.35;10.18;;;23.70;90.10;;;;;;5034020;28;20593;-60
2022/04/14 12:08:53;;;;;;;13.38;8.75;;;23.90;89.70;;;;;;5033831;28;20272;-59
2022/04/14 12:11:21;;;;;;;16.23;9.15;;;24.00;88.10;;;;;;5034063;28;20632;-58
2022/04/14 12:13:48;;;;;;;12.75;9.60;;;24.10;89.50;;;;;;5033864;28;20213;-59
2022/04/14 12:16:15;;;;;;;16.02;8.82;;;24.20;90.10;;;;;;5033618;28;20210;-58
2022/04/14 12:18:49;;;;;;;10.65;8.85;;;24.20;90.30;;;;;;5033667;28;20202;-58
2022/04/14 12:21:20;;;;;;;12.15;9.07;;;24.30;89.30;;;;;;5033851;28;20297;-56
2022/04/14 12:23:49;;;;;;;14.35;9.57;;;24.20;89.80;;;;;;5033736;28;20236;-56
2022/04/14 12:26:17;;;;;;;15.77;8.75;;;23.90;89.60;;;;;;5033911;28;20210;-57
2022/04/14 12:28:45;;;;;;;13.05;8.25;;;23.60;90.00;;;;;;5033631;28;20747;-56
2022/04/14 12:31:12;;;;;;;14.55;7.72;;;23.60;90.00;;;;;;5033497;28;20234;-56
2022/04/14 12:33:39;;;;;;;13.00;8.63;;;23.60;90.00;;;;;;5032755;28;20581;-56
2022/04/14 12:36:08;;;;;;;13.88;8.18;;;23.80;89.30;;;;;;5033627;28;20206;-56
2022/04/14 12:38:45;;;;;;;12.85;7.15;;;23.90;88.00;;;;;;5033609;28;20209;-55
2022/04/14 12:41:19;;;;;;;11.40;7.47;;;23.90;88.00;;;;;;5033397;28;20198;-56
2022/04/14 12:43:48;;;;;;;11.65;7.53;;;24.00;87.80;;;;;;5033211;28;20206;-56
2022/04/14 12:46:22;;;;;;;10.88;6.65;;;24.00;87.70;;;;;;5033073;28;20585;-56
2022/04/14 12:49:01;;;;;;;10.98;7.13;;;24.00;86.90;;;;;;5033315;28;20252;-56